sensor_id;sensor_type;location;lat;lon;timestamp;P1;durP1;ratioP1;P2;durP2;ratioP2
2650;SDS011;1335;48.180;16.342;2024-01-06T00:01:37;20.60;;;14.30;;
2650;SDS011;1335;48.180;16.342;2024-01-06T00:04:04;20.37;;;15.00;;
2650;SDS011;1335;48.180;16.342;2024-01-06T00:06:32;18.93;;;13.40;;
2650;SDS011;1335;48.180;16.342;2024-01-06T00:09:00;17.40;;;13.20;;
2650;SDS011;1335;48.180;16.342;2024-01-06T00:11:28;20.30;;;13.90;;
2650;SDS011;1335;48.180;16.342;2024-01-06T00:13:55;16.03;;;12.90;;
2650;SDS011;1335;48.180;16.342;2024-01-06T00:16:23;17.40;;;13.43;;
2650;SDS011;1335;48.180;16.342;2024-01-06T00:18:50;15.83;;;13.17;;
2650;SDS011;1335;48.180;16.342;2024-01-06T00:21:17;17.77;;;12.73;;
2650;SDS011;1335;48.180;16.342;2024-01-06T00:23:45;20.37;;;14.73;;
2650;SDS011;1335;48.180;16.342;2024-01-06T00:26:13;20.07;;;14.27;;
2650;SDS011;1335;48.180;16.342;2024-01-06T00:28:41;21.00;;;14.20;;
2650;SDS011;1335;48.180;16.342;2024-01-06T00:31:08;19.03;;;13.73;;
2650;SDS011;1335;48.180;16.342;2024-01-06T00:33:36;22.20;;;14.90;;
2650;SDS011;1335;48.180;16.342;2024-01-06T00:36:03;19.83;;;13.60;;
2650;SDS011;1335;48.180;16.342;2024-01-06T00:38:31;21.70;;;14.60;;
2650;SDS011;1335;48.180;16.342;2024-01-06T00:40:59;20.77;;;13.77;;
2650;SDS011;1335;48.180;16.342;2024-01-06T00:43:28;17.40;;;13.50;;
2650;SDS011;1335;48.180;16.342;2024-01-06T00:45:55;20.10;;;14.73;;
2650;SDS011;1335;48.180;16.342;2024-01-06T00:48:22;18.10;;;14.00;;
2650;SDS011;1335;48.180;16.342;2024-01-06T00:50:50;19.30;;;14.17;;
2650;SDS011;1335;48.180;16.342;2024-01-06T00:53:17;22.40;;;13.90;;
2650;SDS011;1335;48.180;16.342;2024-01-06T00:55:44;21.00;;;13.60;;
2650;SDS011;1335;48.180;16.342;2024-01-06T00:58:12;16.80;;;13.97;;
2650;SDS011;1335;48.180;16.342;2024-01-06T01:00:40;14.73;;;12.00;;
2650;SDS011;1335;48.180;16.342;2024-01-06T01:03:08;17.63;;;13.47;;
2650;SDS011;1335;48.180;16.342;2024-01-06T01:05:35;17.10;;;13.00;;
2650;SDS011;1335;48.180;16.342;2024-01-06T01:08:02;18.00;;;12.63;;
2650;SDS011;1335;48.180;16.342;2024-01-06T01:10:30;20.13;;;13.43;;
2650;SDS011;1335;48.180;16.342;2024-01-06T01:12:57;19.53;;;14.37;;
2650;SDS011;1335;48.180;16.342;2024-01-06T01:15:24;17.63;;;13.83;;
2650;SDS011;1335;48.180;16.342;2024-01-06T01:17:53;19.20;;;15.20;;
2650;SDS011;1335;48.180;16.342;2024-01-06T01:20:20;20.13;;;15.03;;
2650;SDS011;1335;48.180;16.342;2024-01-06T01:22:47;15.70;;;14.00;;
2650;SDS011;1335;48.180;16.342;2024-01-06T01:25:15;14.73;;;12.90;;
2650;SDS011;1335;48.180;16.342;2024-01-06T01:27:42;17.90;;;13.67;;
2650;SDS011;1335;48.180;16.342;2024-01-06T01:30:10;15.00;;;12.67;;
2650;SDS011;1335;48.180;16.342;2024-01-06T01:32:39;16.90;;;14.10;;
2650;SDS011;1335;48.180;16.342;2024-01-06T01:35:08;16.10;;;13.20;;
2650;SDS011;1335;48.180;16.342;2024-01-06T01:37:35;17.67;;;13.63;;
2650;SDS011;1335;48.180;16.342;2024-01-06T01:40:02;15.20;;;12.83;;
2650;SDS011;1335;48.180;16.342;2024-01-06T01:42:30;16.63;;;12.33;;
2650;SDS011;1335;48.180;16.342;2024-01-06T01:44:58;20.07;;;13.37;;
2650;SDS011;1335;48.180;16.342;2024-01-06T01:47:25;21.63;;;13.30;;
2650;SDS011;1335;48.180;16.342;2024-01-06T01:49:53;15.10;;;13.23;;
2650;SDS011;1335;48.180;16.342;2024-01-06T01:52:23;15.70;;;12.77;;
2650;SDS011;1335;48.180;16.342;2024-01-06T01:54:50;16.93;;;12.07;;
2650;SDS011;1335;48.180;16.342;2024-01-06T01:57:19;18.40;;;13.77;;
2650;SDS011;1335;48.180;16.342;2024-01-06T01:59:47;14.60;;;12.57;;
2650;SDS011;1335;48.180;16.342;2024-01-06T02:02:15;18.47;;;13.40;;
2650;SDS011;1335;48.180;16.342;2024-01-06T02:04:43;20.23;;;14.20;;
2650;SDS011;1335;48.180;16.342;2024-01-06T02:07:11;19.03;;;13.90;;
2650;SDS011;1335;48.180;16.342;2024-01-06T02:09:40;22.63;;;13.93;;
2650;SDS011;1335;48.180;16.342;2024-01-06T02:12:07;21.27;;;16.37;;
2650;SDS011;1335;48.180;16.342;2024-01-06T02:14:35;19.70;;;14.73;;
2650;SDS011;1335;48.180;16.342;2024-01-06T02:17:02;19.97;;;13.77;;
2650;SDS011;1335;48.180;16.342;2024-01-06T02:19:30;19.60;;;14.70;;
2650;SDS011;1335;48.180;16.342;2024-01-06T02:21:58;18.70;;;14.00;;
2650;SDS011;1335;48.180;16.342;2024-01-06T02:24:26;22.23;;;13.73;;
2650;SDS011;1335;48.180;16.342;2024-01-06T02:26:53;23.83;;;16.10;;
2650;SDS011;1335;48.180;16.342;2024-01-06T02:29:20;24.30;;;18.00;;
2650;SDS011;1335;48.180;16.342;2024-01-06T02:31:47;22.97;;;17.80;;
2650;SDS011;1335;48.180;16.342;2024-01-06T02:34:15;20.33;;;17.33;;
2650;SDS011;1335;48.180;16.342;2024-01-06T02:36:42;26.13;;;18.27;;
2650;SDS011;1335;48.180;16.342;2024-01-06T02:39:11;25.37;;;19.47;;
2650;SDS011;1335;48.180;16.342;2024-01-06T02:41:38;25.83;;;20.90;;
2650;SDS011;1335;48.180;16.342;2024-01-06T02:44:06;22.90;;;18.60;;
2650;SDS011;1335;48.180;16.342;2024-01-06T02:46:33;21.53;;;17.83;;
2650;SDS011;1335;48.180;16.342;2024-01-06T02:49:01;26.67;;;19.40;;
2650;SDS011;1335;48.180;16.342;2024-01-06T02:51:28;25.20;;;20.30;;
2650;SDS011;1335;48.180;16.342;2024-01-06T02:53:55;24.37;;;18.50;;
2650;SDS011;1335;48.180;16.342;2024-01-06T02:56:24;22.83;;;18.80;;
2650;SDS011;1335;48.180;16.342;2024-01-06T02:58:51;18.87;;;16.83;;
2650;SDS011;1335;48.180;16.342;2024-01-06T03:01:19;25.83;;;18.63;;
2650;SDS011;1335;48.180;16.342;2024-01-06T03:03:46;24.70;;;18.23;;
2650;SDS011;1335;48.180;16.342;2024-01-06T03:06:13;22.27;;;18.17;;
2650;SDS011;1335;48.180;16.342;2024-01-06T03:08:41;23.80;;;18.43;;
2650;SDS011;1335;48.180;16.342;2024-01-06T03:11:08;26.10;;;16.60;;
2650;SDS011;1335;48.180;16.342;2024-01-06T03:13:36;25.53;;;18.77;;
2650;SDS011;1335;48.180;16.342;2024-01-06T03:16:04;22.30;;;18.23;;
2650;SDS011;1335;48.180;16.342;2024-01-06T03:18:31;21.60;;;19.00;;
2650;SDS011;1335;48.180;16.342;2024-01-06T03:20:58;24.23;;;17.97;;
2650;SDS011;1335;48.180;16.342;2024-01-06T03:23:26;27.60;;;19.20;;
2650;SDS011;1335;48.180;16.342;2024-01-06T03:25:53;22.70;;;18.30;;
2650;SDS011;1335;48.180;16.342;2024-01-06T03:28:20;25.07;;;18.63;;
2650;SDS011;1335;48.180;16.342;2024-01-06T03:30:49;22.10;;;17.40;;
2650;SDS011;1335;48.180;16.342;2024-01-06T03:33:16;20.27;;;18.03;;
2650;SDS011;1335;48.180;16.342;2024-01-06T03:35:44;21.00;;;17.73;;
2650;SDS011;1335;48.180;16.342;2024-01-06T03:38:11;24.60;;;18.70;;
2650;SDS011;1335;48.180;16.342;2024-01-06T03:40:38;21.23;;;18.50;;
2650;SDS011;1335;48.180;16.342;2024-01-06T03:43:06;23.23;;;19.33;;
2650;SDS011;1335;48.180;16.342;2024-01-06T03:45:33;20.60;;;18.40;;
2650;SDS011;1335;48.180;16.342;2024-01-06T03:48:02;21.43;;;17.90;;
2650;SDS011;1335;48.180;16.342;2024-01-06T03:50:29;24.33;;;19.17;;
2650;SDS011;1335;48.180;16.342;2024-01-06T03:52:56;21.50;;;18.23;;
2650;SDS011;1335;48.180;16.342;2024-01-06T03:55:24;25.53;;;18.57;;
2650;SDS011;1335;48.180;16.342;2024-01-06T03:57:51;23.33;;;19.67;;
2650;SDS011;1335;48.180;16.342;2024-01-06T04:00:18;23.80;;;18.03;;
2650;SDS011;1335;48.180;16.342;2024-01-06T04:02:46;24.80;;;17.97;;
2650;SDS011;1335;48.180;16.342;2024-01-06T04:05:14;22.23;;;17.30;;
2650;SDS011;1335;48.180;16.342;2024-01-06T04:07:42;19.00;;;17.00;;
2650;SDS011;1335;48.180;16.342;2024-01-06T04:10:09;19.10;;;16.97;;
2650;SDS011;1335;48.180;16.342;2024-01-06T04:12:36;20.87;;;16.30;;
2650;SDS011;1335;48.180;16.342;2024-01-06T04:15:04;20.60;;;17.70;;
2650;SDS011;1335;48.180;16.342;2024-01-06T04:17:31;24.47;;;17.80;;
2650;SDS011;1335;48.180;16.342;2024-01-06T04:19:58;25.53;;;17.70;;
2650;SDS011;1335;48.180;16.342;2024-01-06T04:22:27;23.47;;;17.17;;
2650;SDS011;1335;48.180;16.342;2024-01-06T04:24:54;22.83;;;18.30;;
2650;SDS011;1335;48.180;16.342;2024-01-06T04:27:22;23.20;;;17.30;;
2650;SDS011;1335;48.180;16.342;2024-01-06T04:29:49;22.00;;;17.37;;
2650;SDS011;1335;48.180;16.342;2024-01-06T04:32:18;22.83;;;19.00;;
2650;SDS011;1335;48.180;16.342;2024-01-06T04:34:45;22.30;;;17.93;;
2650;SDS011;1335;48.180;16.342;2024-01-06T04:37:12;22.00;;;17.30;;
2650;SDS011;1335;48.180;16.342;2024-01-06T04:39:41;22.90;;;17.10;;
2650;SDS011;1335;48.180;16.342;2024-01-06T04:42:08;23.30;;;18.90;;
2650;SDS011;1335;48.180;16.342;2024-01-06T04:44:36;20.07;;;16.73;;
2650;SDS011;1335;48.180;16.342;2024-01-06T04:47:03;25.83;;;18.67;;
2650;SDS011;1335;48.180;16.342;2024-01-06T04:49:31;21.47;;;16.90;;
2650;SDS011;1335;48.180;16.342;2024-01-06T04:51:58;19.33;;;16.80;;
2650;SDS011;1335;48.180;16.342;2024-01-06T04:54:25;21.47;;;16.90;;
2650;SDS011;1335;48.180;16.342;2024-01-06T04:56:54;20.70;;;17.33;;
2650;SDS011;1335;48.180;16.342;2024-01-06T04:59:22;20.97;;;17.63;;
2650;SDS011;1335;48.180;16.342;2024-01-06T05:01:49;22.10;;;16.50;;
2650;SDS011;1335;48.180;16.342;2024-01-06T05:04:17;20.70;;;16.80;;
2650;SDS011;1335;48.180;16.342;2024-01-06T05:06:44;22.87;;;17.50;;
2650;SDS011;1335;48.180;16.342;2024-01-06T05:09:12;22.27;;;16.83;;
2650;SDS011;1335;48.180;16.342;2024-01-06T05:11:39;20.53;;;16.47;;
2650;SDS011;1335;48.180;16.342;2024-01-06T05:14:07;19.37;;;16.70;;
2650;SDS011;1335;48.180;16.342;2024-01-06T05:16:35;21.30;;;16.50;;
2650;SDS011;1335;48.180;16.342;2024-01-06T05:19:02;18.43;;;15.37;;
2650;SDS011;1335;48.180;16.342;2024-01-06T05:21:30;19.80;;;15.87;;
2650;SDS011;1335;48.180;16.342;2024-01-06T05:23:57;18.90;;;15.93;;
2650;SDS011;1335;48.180;16.342;2024-01-06T05:26:24;20.50;;;16.53;;
2650;SDS011;1335;48.180;16.342;2024-01-06T05:28:52;20.97;;;15.33;;
2650;SDS011;1335;48.180;16.342;2024-01-06T05:31:20;20.07;;;16.97;;
2650;SDS011;1335;48.180;16.342;2024-01-06T05:33:48;17.00;;;15.27;;
2650;SDS011;1335;48.180;16.342;2024-01-06T05:36:18;19.20;;;15.83;;
2650;SDS011;1335;48.180;16.342;2024-01-06T05:38:46;19.77;;;16.80;;
2650;SDS011;1335;48.180;16.342;2024-01-06T05:41:13;18.80;;;15.60;;
2650;SDS011;1335;48.180;16.342;2024-01-06T05:43:40;17.07;;;15.00;;
2650;SDS011;1335;48.180;16.342;2024-01-06T05:46:08;19.77;;;16.47;;
2650;SDS011;1335;48.180;16.342;2024-01-06T05:48:37;20.83;;;16.50;;
2650;SDS011;1335;48.180;16.342;2024-01-06T05:51:06;19.60;;;15.67;;
2650;SDS011;1335;48.180;16.342;2024-01-06T05:53:33;18.30;;;15.50;;
2650;SDS011;1335;48.180;16.342;2024-01-06T05:56:03;19.63;;;16.27;;
2650;SDS011;1335;48.180;16.342;2024-01-06T05:58:30;19.27;;;16.73;;
2650;SDS011;1335;48.180;16.342;2024-01-06T06:00:57;21.10;;;16.50;;
2650;SDS011;1335;48.180;16.342;2024-01-06T06:03:25;18.83;;;15.60;;
2650;SDS011;1335;48.180;16.342;2024-01-06T06:05:53;20.17;;;17.37;;
2650;SDS011;1335;48.180;16.342;2024-01-06T06:08:21;19.33;;;17.23;;
2650;SDS011;1335;48.180;16.342;2024-01-06T06:10:48;19.07;;;15.57;;
2650;SDS011;1335;48.180;16.342;2024-01-06T06:13:26;20.70;;;16.57;;
2650;SDS011;1335;48.180;16.342;2024-01-06T06:15:53;20.77;;;15.57;;
2650;SDS011;1335;48.180;16.342;2024-01-06T06:18:21;21.97;;;16.33;;
2650;SDS011;1335;48.180;16.342;2024-01-06T06:20:48;19.63;;;15.10;;
2650;SDS011;1335;48.180;16.342;2024-01-06T06:23:17;20.57;;;15.50;;
2650;SDS011;1335;48.180;16.342;2024-01-06T06:25:44;22.20;;;15.80;;
2650;SDS011;1335;48.180;16.342;2024-01-06T06:28:11;22.40;;;16.80;;
2650;SDS011;1335;48.180;16.342;2024-01-06T06:30:39;19.37;;;16.67;;
2650;SDS011;1335;48.180;16.342;2024-01-06T06:33:06;19.53;;;16.17;;
2650;SDS011;1335;48.180;16.342;2024-01-06T06:35:33;18.90;;;16.20;;
2650;SDS011;1335;48.180;16.342;2024-01-06T06:38:00;19.00;;;15.00;;
2650;SDS011;1335;48.180;16.342;2024-01-06T06:40:29;19.00;;;15.00;;
2650;SDS011;1335;48.180;16.342;2024-01-06T06:42:56;18.70;;;15.83;;
2650;SDS011;1335;48.180;16.342;2024-01-06T06:45:24;17.87;;;15.00;;
2650;SDS011;1335;48.180;16.342;2024-01-06T06:47:51;18.53;;;16.57;;
2650;SDS011;1335;48.180;16.342;2024-01-06T06:50:19;17.37;;;14.97;;
2650;SDS011;1335;48.180;16.342;2024-01-06T06:52:46;21.40;;;16.30;;
2650;SDS011;1335;48.180;16.342;2024-01-06T06:55:14;19.13;;;15.63;;
2650;SDS011;1335;48.180;16.342;2024-01-06T06:57:42;19.13;;;15.63;;
2650;SDS011;1335;48.180;16.342;2024-01-06T07:00:10;20.57;;;17.07;;
2650;SDS011;1335;48.180;16.342;2024-01-06T07:02:38;19.83;;;15.90;;
2650;SDS011;1335;48.180;16.342;2024-01-06T07:05:05;18.50;;;15.80;;
2650;SDS011;1335;48.180;16.342;2024-01-06T07:07:33;20.87;;;16.40;;
2650;SDS011;1335;48.180;16.342;2024-01-06T07:10:00;19.43;;;16.40;;
2650;SDS011;1335;48.180;16.342;2024-01-06T07:12:28;19.83;;;15.37;;
2650;SDS011;1335;48.180;16.342;2024-01-06T07:14:57;21.40;;;17.30;;
2650;SDS011;1335;48.180;16.342;2024-01-06T07:17:24;20.07;;;16.30;;
2650;SDS011;1335;48.180;16.342;2024-01-06T07:19:52;22.63;;;16.83;;
2650;SDS011;1335;48.180;16.342;2024-01-06T07:22:19;20.67;;;16.37;;
2650;SDS011;1335;48.180;16.342;2024-01-06T07:24:46;22.23;;;16.90;;
2650;SDS011;1335;48.180;16.342;2024-01-06T07:27:13;20.23;;;18.10;;
2650;SDS011;1335;48.180;16.342;2024-01-06T07:29:41;20.80;;;16.97;;
2650;SDS011;1335;48.180;16.342;2024-01-06T07:32:09;20.47;;;16.27;;
2650;SDS011;1335;48.180;16.342;2024-01-06T07:34:37;22.90;;;16.70;;
2650;SDS011;1335;48.180;16.342;2024-01-06T07:37:04;20.23;;;16.20;;
2650;SDS011;1335;48.180;16.342;2024-01-06T07:39:32;21.67;;;16.47;;
2650;SDS011;1335;48.180;16.342;2024-01-06T07:41:59;22.23;;;16.60;;
2650;SDS011;1335;48.180;16.342;2024-01-06T07:44:27;19.60;;;16.80;;
2650;SDS011;1335;48.180;16.342;2024-01-06T07:46:55;21.33;;;16.53;;
2650;SDS011;1335;48.180;16.342;2024-01-06T07:49:23;19.67;;;15.80;;
2650;SDS011;1335;48.180;16.342;2024-01-06T07:51:51;23.50;;;17.87;;
2650;SDS011;1335;48.180;16.342;2024-01-06T07:54:18;21.77;;;16.57;;
2650;SDS011;1335;48.180;16.342;2024-01-06T07:56:45;23.20;;;17.57;;
2650;SDS011;1335;48.180;16.342;2024-01-06T07:59:13;22.67;;;17.60;;
2650;SDS011;1335;48.180;16.342;2024-01-06T08:01:40;20.30;;;16.80;;
2650;SDS011;1335;48.180;16.342;2024-01-06T08:04:08;21.37;;;17.10;;
2650;SDS011;1335;48.180;16.342;2024-01-06T08:06:37;19.50;;;16.47;;
2650;SDS011;1335;48.180;16.342;2024-01-06T08:09:04;20.10;;;16.23;;
2650;SDS011;1335;48.180;16.342;2024-01-06T08:11:33;23.13;;;16.20;;
2650;SDS011;1335;48.180;16.342;2024-01-06T08:14:00;19.60;;;16.03;;
2650;SDS011;1335;48.180;16.342;2024-01-06T08:16:28;19.40;;;16.43;;
2650;SDS011;1335;48.180;16.342;2024-01-06T08:18:55;21.70;;;16.17;;
2650;SDS011;1335;48.180;16.342;2024-01-06T08:21:22;20.33;;;15.63;;
2650;SDS011;1335;48.180;16.342;2024-01-06T08:23:51;18.50;;;15.90;;
2650;SDS011;1335;48.180;16.342;2024-01-06T08:26:18;18.93;;;14.93;;
2650;SDS011;1335;48.180;16.342;2024-01-06T08:28:46;20.30;;;14.97;;
2650;SDS011;1335;48.180;16.342;2024-01-06T08:31:13;19.43;;;14.40;;
2650;SDS011;1335;48.180;16.342;2024-01-06T08:33:40;16.40;;;13.87;;
2650;SDS011;1335;48.180;16.342;2024-01-06T08:36:08;16.00;;;13.80;;
2650;SDS011;1335;48.180;16.342;2024-01-06T08:38:35;19.80;;;15.10;;
2650;SDS011;1335;48.180;16.342;2024-01-06T08:41:04;16.90;;;12.90;;
2650;SDS011;1335;48.180;16.342;2024-01-06T08:43:31;19.77;;;14.43;;
2650;SDS011;1335;48.180;16.342;2024-01-06T08:45:58;14.23;;;12.00;;
2650;SDS011;1335;48.180;16.342;2024-01-06T08:48:27;15.03;;;12.33;;
2650;SDS011;1335;48.180;16.342;2024-01-06T08:50:54;12.20;;;11.00;;
2650;SDS011;1335;48.180;16.342;2024-01-06T08:53:22;11.87;;;10.60;;
2650;SDS011;1335;48.180;16.342;2024-01-06T08:55:51;13.40;;;10.70;;
2650;SDS011;1335;48.180;16.342;2024-01-06T08:58:19;17.63;;;11.50;;
2650;SDS011;1335;48.180;16.342;2024-01-06T09:00:46;12.40;;;10.43;;
2650;SDS011;1335;48.180;16.342;2024-01-06T09:03:14;12.80;;;9.70;;
2650;SDS011;1335;48.180;16.342;2024-01-06T09:05:41;10.83;;;9.70;;
2650;SDS011;1335;48.180;16.342;2024-01-06T09:08:08;10.23;;;9.23;;
2650;SDS011;1335;48.180;16.342;2024-01-06T09:10:36;11.40;;;10.20;;
2650;SDS011;1335;48.180;16.342;2024-01-06T09:13:03;10.40;;;9.33;;
2650;SDS011;1335;48.180;16.342;2024-01-06T09:15:32;11.00;;;9.90;;
2650;SDS011;1335;48.180;16.342;2024-01-06T09:17:59;11.80;;;10.50;;
2650;SDS011;1335;48.180;16.342;2024-01-06T09:20:27;9.80;;;8.80;;
2650;SDS011;1335;48.180;16.342;2024-01-06T09:22:55;10.70;;;9.60;;
2650;SDS011;1335;48.180;16.342;2024-01-06T09:25:22;10.60;;;9.57;;
2650;SDS011;1335;48.180;16.342;2024-01-06T09:27:49;11.77;;;10.57;;
2650;SDS011;1335;48.180;16.342;2024-01-06T09:30:18;11.00;;;9.37;;
2650;SDS011;1335;48.180;16.342;2024-01-06T09:32:47;11.07;;;9.23;;
2650;SDS011;1335;48.180;16.342;2024-01-06T09:35:14;10.57;;;9.47;;
2650;SDS011;1335;48.180;16.342;2024-01-06T09:37:41;9.90;;;8.90;;
2650;SDS011;1335;48.180;16.342;2024-01-06T09:40:11;10.03;;;8.73;;
2650;SDS011;1335;48.180;16.342;2024-01-06T09:42:39;10.47;;;8.43;;
2650;SDS011;1335;48.180;16.342;2024-01-06T09:45:06;8.90;;;8.10;;
2650;SDS011;1335;48.180;16.342;2024-01-06T09:47:34;8.13;;;7.33;;
2650;SDS011;1335;48.180;16.342;2024-01-06T09:50:04;8.03;;;7.30;;
2650;SDS011;1335;48.180;16.342;2024-01-06T09:52:35;8.40;;;6.83;;
2650;SDS011;1335;48.180;16.342;2024-01-06T09:55:06;8.47;;;7.57;;
2650;SDS011;1335;48.180;16.342;2024-01-06T09:57:36;7.77;;;7.00;;
2650;SDS011;1335;48.180;16.342;2024-01-06T10:00:04;8.17;;;7.03;;
2650;SDS011;1335;48.180;16.342;2024-01-06T10:02:33;7.07;;;6.47;;
2650;SDS011;1335;48.180;16.342;2024-01-06T10:05:00;7.80;;;7.00;;
2650;SDS011;1335;48.180;16.342;2024-01-06T10:07:30;7.83;;;6.70;;
2650;SDS011;1335;48.180;16.342;2024-01-06T10:09:57;8.20;;;7.20;;
2650;SDS011;1335;48.180;16.342;2024-01-06T10:12:24;7.30;;;6.60;;
2650;SDS011;1335;48.180;16.342;2024-01-06T10:14:53;8.33;;;7.07;;
2650;SDS011;1335;48.180;16.342;2024-01-06T10:17:20;7.20;;;6.53;;
2650;SDS011;1335;48.180;16.342;2024-01-06T10:19:48;8.37;;;7.57;;
2650;SDS011;1335;48.180;16.342;2024-01-06T10:22:17;7.90;;;7.10;;
2650;SDS011;1335;48.180;16.342;2024-01-06T10:24:46;7.40;;;6.70;;
2650;SDS011;1335;48.180;16.342;2024-01-06T10:27:14;7.83;;;7.03;;
2650;SDS011;1335;48.180;16.342;2024-01-06T10:29:41;7.63;;;6.83;;
2650;SDS011;1335;48.180;16.342;2024-01-06T10:32:08;7.60;;;6.90;;
2650;SDS011;1335;48.180;16.342;2024-01-06T10:34:36;8.83;;;7.80;;
2650;SDS011;1335;48.180;16.342;2024-01-06T10:37:03;10.17;;;9.17;;
2650;SDS011;1335;48.180;16.342;2024-01-06T10:39:31;8.83;;;8.03;;
2650;SDS011;1335;48.180;16.342;2024-01-06T10:42:00;10.10;;;9.13;;
2650;SDS011;1335;48.180;16.342;2024-01-06T10:44:28;12.97;;;10.70;;
2650;SDS011;1335;48.180;16.342;2024-01-06T10:46:56;9.37;;;8.07;;
2650;SDS011;1335;48.180;16.342;2024-01-06T10:49:24;10.57;;;8.80;;
2650;SDS011;1335;48.180;16.342;2024-01-06T10:51:55;11.00;;;8.70;;
2650;SDS011;1335;48.180;16.342;2024-01-06T10:54:23;11.97;;;10.13;;
2650;SDS011;1335;48.180;16.342;2024-01-06T10:56:51;24.87;;;16.90;;
2650;SDS011;1335;48.180;16.342;2024-01-06T10:59:21;11.40;;;10.20;;
2650;SDS011;1335;48.180;16.342;2024-01-06T11:01:50;13.57;;;10.60;;
2650;SDS011;1335;48.180;16.342;2024-01-06T11:04:18;9.60;;;8.70;;
2650;SDS011;1335;48.180;16.342;2024-01-06T11:06:47;10.00;;;9.00;;
2650;SDS011;1335;48.180;16.342;2024-01-06T11:09:15;11.23;;;9.43;;
2650;SDS011;1335;48.180;16.342;2024-01-06T11:11:45;12.47;;;9.47;;
2650;SDS011;1335;48.180;16.342;2024-01-06T11:14:19;11.07;;;9.60;;
2650;SDS011;1335;48.180;16.342;2024-01-06T11:16:48;12.07;;;10.20;;
2650;SDS011;1335;48.180;16.342;2024-01-06T11:24:46;9.73;;;8.70;;
2650;SDS011;1335;48.180;16.342;2024-01-06T11:27:17;10.43;;;8.60;;
2650;SDS011;1335;48.180;16.342;2024-01-06T11:29:45;12.13;;;10.47;;
2650;SDS011;1335;48.180;16.342;2024-01-06T11:32:17;10.77;;;8.53;;
2650;SDS011;1335;48.180;16.342;2024-01-06T11:34:48;8.97;;;8.07;;
2650;SDS011;1335;48.180;16.342;2024-01-06T11:37:20;7.90;;;7.10;;
2650;SDS011;1335;48.180;16.342;2024-01-06T11:39:47;7.97;;;7.20;;
2650;SDS011;1335;48.180;16.342;2024-01-06T11:42:14;9.57;;;8.57;;
2650;SDS011;1335;48.180;16.342;2024-01-06T11:44:43;8.07;;;6.97;;
2650;SDS011;1335;48.180;16.342;2024-01-06T11:47:11;7.67;;;6.97;;
2650;SDS011;1335;48.180;16.342;2024-01-06T11:49:41;8.50;;;7.60;;
2650;SDS011;1335;48.180;16.342;2024-01-06T11:52:12;7.67;;;6.87;;
2650;SDS011;1335;48.180;16.342;2024-01-06T11:54:41;8.10;;;6.27;;
2650;SDS011;1335;48.180;16.342;2024-01-06T11:57:08;8.50;;;7.20;;
2650;SDS011;1335;48.180;16.342;2024-01-06T11:59:35;8.77;;;7.07;;
2650;SDS011;1335;48.180;16.342;2024-01-06T12:02:03;8.17;;;6.80;;
2650;SDS011;1335;48.180;16.342;2024-01-06T12:04:31;7.73;;;6.70;;
2650;SDS011;1335;48.180;16.342;2024-01-06T12:07:06;8.00;;;7.20;;
2650;SDS011;1335;48.180;16.342;2024-01-06T12:09:33;8.00;;;7.20;;
2650;SDS011;1335;48.180;16.342;2024-01-06T12:12:01;8.17;;;7.37;;
2650;SDS011;1335;48.180;16.342;2024-01-06T12:14:29;7.83;;;7.00;;
2650;SDS011;1335;48.180;16.342;2024-01-06T12:16:58;7.33;;;6.60;;
2650;SDS011;1335;48.180;16.342;2024-01-06T12:19:28;7.80;;;7.00;;
2650;SDS011;1335;48.180;16.342;2024-01-06T12:21:55;9.90;;;7.00;;
2650;SDS011;1335;48.180;16.342;2024-01-06T12:24:26;7.10;;;6.33;;
2650;SDS011;1335;48.180;16.342;2024-01-06T12:26:54;6.33;;;5.73;;
2650;SDS011;1335;48.180;16.342;2024-01-06T12:29:22;8.67;;;6.03;;
2650;SDS011;1335;48.180;16.342;2024-01-06T12:31:49;6.13;;;5.60;;
2650;SDS011;1335;48.180;16.342;2024-01-06T12:34:17;8.07;;;7.30;;
2650;SDS011;1335;48.180;16.342;2024-01-06T12:36:44;5.90;;;5.40;;
2650;SDS011;1335;48.180;16.342;2024-01-06T12:39:13;6.90;;;6.30;;
2650;SDS011;1335;48.180;16.342;2024-01-06T12:41:42;7.30;;;6.30;;
2650;SDS011;1335;48.180;16.342;2024-01-06T12:44:10;6.77;;;6.10;;
2650;SDS011;1335;48.180;16.342;2024-01-06T12:46:37;7.53;;;6.93;;
2650;SDS011;1335;48.180;16.342;2024-01-06T12:49:05;6.87;;;6.17;;
2650;SDS011;1335;48.180;16.342;2024-01-06T12:51:32;6.20;;;5.60;;
2650;SDS011;1335;48.180;16.342;2024-01-06T12:54:00;6.23;;;5.60;;
2650;SDS011;1335;48.180;16.342;2024-01-06T12:56:27;6.40;;;5.83;;
2650;SDS011;1335;48.180;16.342;2024-01-06T12:58:56;6.37;;;5.77;;
2650;SDS011;1335;48.180;16.342;2024-01-06T13:01:23;6.43;;;5.30;;
2650;SDS011;1335;48.180;16.342;2024-01-06T13:03:51;6.93;;;5.40;;
2650;SDS011;1335;48.180;16.342;2024-01-06T13:06:19;6.47;;;5.87;;
2650;SDS011;1335;48.180;16.342;2024-01-06T13:08:46;6.83;;;6.13;;
2650;SDS011;1335;48.180;16.342;2024-01-06T13:11:14;5.60;;;5.10;;
2650;SDS011;1335;48.180;16.342;2024-01-06T13:13:41;6.53;;;5.93;;
2650;SDS011;1335;48.180;16.342;2024-01-06T13:16:10;7.00;;;6.33;;
2650;SDS011;1335;48.180;16.342;2024-01-06T13:18:37;7.47;;;6.60;;
2650;SDS011;1335;48.180;16.342;2024-01-06T13:21:05;6.67;;;6.13;;
2650;SDS011;1335;48.180;16.342;2024-01-06T13:23:32;7.07;;;6.23;;
2650;SDS011;1335;48.180;16.342;2024-01-06T13:25:59;6.83;;;6.23;;
2650;SDS011;1335;48.180;16.342;2024-01-06T13:28:27;6.67;;;5.97;;
2650;SDS011;1335;48.180;16.342;2024-01-06T13:30:54;7.10;;;6.40;;
2650;SDS011;1335;48.180;16.342;2024-01-06T13:33:23;6.30;;;5.70;;
2650;SDS011;1335;48.180;16.342;2024-01-06T13:35:50;6.17;;;5.63;;
2650;SDS011;1335;48.180;16.342;2024-01-06T13:38:17;6.57;;;5.97;;
2650;SDS011;1335;48.180;16.342;2024-01-06T13:40:45;7.20;;;6.50;;
2650;SDS011;1335;48.180;16.342;2024-01-06T13:43:12;7.40;;;6.53;;
2650;SDS011;1335;48.180;16.342;2024-01-06T13:45:41;6.50;;;5.97;;
2650;SDS011;1335;48.180;16.342;2024-01-06T13:48:09;7.10;;;6.50;;
2650;SDS011;1335;48.180;16.342;2024-01-06T13:50:38;7.93;;;7.13;;
2650;SDS011;1335;48.180;16.342;2024-01-06T13:53:05;8.20;;;6.90;;
2650;SDS011;1335;48.180;16.342;2024-01-06T13:55:33;7.60;;;6.80;;
2650;SDS011;1335;48.180;16.342;2024-01-06T13:58:00;7.47;;;6.77;;
2650;SDS011;1335;48.180;16.342;2024-01-06T14:00:28;7.10;;;6.40;;
2650;SDS011;1335;48.180;16.342;2024-01-06T14:02:55;7.37;;;6.50;;
2650;SDS011;1335;48.180;16.342;2024-01-06T14:05:23;8.00;;;6.50;;
2650;SDS011;1335;48.180;16.342;2024-01-06T14:07:51;7.60;;;6.90;;
2650;SDS011;1335;48.180;16.342;2024-01-06T14:10:19;8.53;;;6.60;;
2650;SDS011;1335;48.180;16.342;2024-01-06T14:12:46;8.50;;;7.70;;
2650;SDS011;1335;48.180;16.342;2024-01-06T14:15:14;9.87;;;7.07;;
2650;SDS011;1335;48.180;16.342;2024-01-06T14:17:41;7.83;;;7.03;;
2650;SDS011;1335;48.180;16.342;2024-01-06T14:20:14;7.83;;;6.87;;
2650;SDS011;1335;48.180;16.342;2024-01-06T14:22:43;8.37;;;7.57;;
2650;SDS011;1335;48.180;16.342;2024-01-06T14:25:12;8.57;;;7.20;;
2650;SDS011;1335;48.180;16.342;2024-01-06T14:27:39;7.77;;;7.07;;
2650;SDS011;1335;48.180;16.342;2024-01-06T14:30:07;7.57;;;6.87;;
2650;SDS011;1335;48.180;16.342;2024-01-06T14:32:35;7.87;;;7.17;;
2650;SDS011;1335;48.180;16.342;2024-01-06T14:35:03;9.13;;;8.23;;
2650;SDS011;1335;48.180;16.342;2024-01-06T14:37:31;7.47;;;6.83;;
2650;SDS011;1335;48.180;16.342;2024-01-06T14:39:59;7.67;;;6.97;;
2650;SDS011;1335;48.180;16.342;2024-01-06T14:42:31;7.97;;;7.27;;
2650;SDS011;1335;48.180;16.342;2024-01-06T14:45:01;7.07;;;6.47;;
2650;SDS011;1335;48.180;16.342;2024-01-06T14:47:29;8.33;;;7.50;;
2650;SDS011;1335;48.180;16.342;2024-01-06T14:49:57;8.67;;;7.57;;
2650;SDS011;1335;48.180;16.342;2024-01-06T14:52:25;9.07;;;8.17;;